sensor_id;sensor_type;location;lat;lon;timestamp;pressure;altitude;pressure_sealevel;temperature;humidity
66887;BME280;53798;51.680;5.976;2022-07-30T00:01:35;101647.78;;;17.44;68.62
66887;BME280;53798;51.680;5.976;2022-07-30T00:04:02;101646.13;;;17.42;68.69
66887;BME280;53798;51.680;5.976;2022-07-30T00:06:30;101640.13;;;17.36;68.89
66887;BME280;53798;51.680;5.976;2022-07-30T00:08:58;101644.75;;;17.33;69.02
66887;BME280;53798;51.680;5.976;2022-07-30T00:11:26;101641.34;;;17.29;69.48
66887;BME280;53798;51.680;5.976;2022-07-30T00:13:54;101641.66;;;17.23;69.78
66887;BME280;53798;51.680;5.976;2022-07-30T00:16:21;101637.59;;;17.14;70.10
66887;BME280;53798;51.680;5.976;2022-07-30T00:18:49;101640.47;;;17.10;70.54
66887;BME280;53798;51.680;5.976;2022-07-30T00:21:17;101645.28;;;17.01;70.90
66887;BME280;53798;51.680;5.976;2022-07-30T00:24:03;101646.47;;;16.94;71.28
66887;BME280;53798;51.680;5.976;2022-07-30T00:26:30;101646.72;;;16.88;71.59
66887;BME280;53798;51.680;5.976;2022-07-30T00:28:58;101643.31;;;16.84;72.11
66887;BME280;53798;51.680;5.976;2022-07-30T00:31:25;101647.13;;;16.79;72.36
66887;BME280;53798;51.680;5.976;2022-07-30T00:33:53;101655.22;;;16.75;72.82
66887;BME280;53798;51.680;5.976;2022-07-30T00:36:22;101648.16;;;16.74;73.56
66887;BME280;53798;51.680;5.976;2022-07-30T00:38:50;101658.16;;;16.69;74.10
66887;BME280;53798;51.680;5.976;2022-07-30T00:41:18;101646.00;;;16.64;74.37
66887;BME280;53798;51.680;5.976;2022-07-30T00:43:46;101647.13;;;16.58;74.35
66887;BME280;53798;51.680;5.976;2022-07-30T00:46:13;101648.13;;;16.55;74.37
66887;BME280;53798;51.680;5.976;2022-07-30T00:48:41;101648.97;;;16.56;75.11
66887;BME280;53798;51.680;5.976;2022-07-30T00:51:09;101654.38;;;16.54;75.26
66887;BME280;53798;51.680;5.976;2022-07-30T00:53:36;101652.63;;;16.53;75.61
66887;BME280;53798;51.680;5.976;2022-07-30T00:56:04;101652.72;;;16.52;75.71
66887;BME280;53798;51.680;5.976;2022-07-30T00:58:32;101650.91;;;16.52;75.71
66887;BME280;53798;51.680;5.976;2022-07-30T01:01:00;101654.44;;;16.53;75.98
66887;BME280;53798;51.680;5.976;2022-07-30T01:03:27;101649.13;;;16.53;76.17
66887;BME280;53798;51.680;5.976;2022-07-30T01:05:54;101648.31;;;16.51;76.47
66887;BME280;53798;51.680;5.976;2022-07-30T01:08:22;101652.72;;;16.52;76.70
66887;BME280;53798;51.680;5.976;2022-07-30T01:10:50;101650.91;;;16.52;76.77
66887;BME280;53798;51.680;5.976;2022-07-30T01:13:18;101649.16;;;16.51;76.67
66887;BME280;53798;51.680;5.976;2022-07-30T01:15:45;101650.09;;;16.50;76.56
66887;BME280;53798;51.680;5.976;2022-07-30T01:18:14;101641.13;;;16.53;78.75
66887;BME280;53798;51.680;5.976;2022-07-30T01:20:49;101645.38;;;16.57;79.85
66887;BME280;53798;51.680;5.976;2022-07-30T01:23:35;101648.03;;;16.57;80.18
66887;BME280;53798;51.680;5.976;2022-07-30T01:26:15;101646.25;;;16.57;80.83
66887;BME280;53798;51.680;5.976;2022-07-30T01:28:48;101642.59;;;16.60;81.89
66887;BME280;53798;51.680;5.976;2022-07-30T01:31:18;101640.06;;;16.57;81.82
66887;BME280;53798;51.680;5.976;2022-07-30T01:33:48;101641.78;;;16.58;82.00
66887;BME280;53798;51.680;5.976;2022-07-30T01:36:20;101633.94;;;16.55;81.64
66887;BME280;53798;51.680;5.976;2022-07-30T01:38:49;101639.22;;;16.56;82.24
66887;BME280;53798;51.680;5.976;2022-07-30T01:41:18;101648.13;;;16.55;82.12
66887;BME280;53798;51.680;5.976;2022-07-30T01:43:46;101641.00;;;16.56;82.58
66887;BME280;53798;51.680;5.976;2022-07-30T01:46:15;101643.72;;;16.54;82.44
66887;BME280;53798;51.680;5.976;2022-07-30T01:48:47;101639.34;;;16.53;82.11
66887;BME280;53798;51.680;5.976;2022-07-30T01:51:16;101635.88;;;16.51;81.81
66887;BME280;53798;51.680;5.976;2022-07-30T01:53:49;101633.34;;;16.48;81.83
66887;BME280;53798;51.680;5.976;2022-07-30T01:56:22;101637.91;;;16.44;81.80
66887;BME280;53798;51.680;5.976;2022-07-30T01:58:54;101634.47;;;16.42;82.49
66887;BME280;53798;51.680;5.976;2022-07-30T02:01:29;101646.91;;;16.42;83.14
66887;BME280;53798;51.680;5.976;2022-07-30T02:04:00;101647.97;;;16.38;83.17
66887;BME280;53798;51.680;5.976;2022-07-30T02:06:41;101649.94;;;16.33;82.89
66887;BME280;53798;51.680;5.976;2022-07-30T02:09:18;101656.47;;;16.25;82.84
66887;BME280;53798;51.680;5.976;2022-07-30T02:11:53;101654.19;;;16.16;82.66
66887;BME280;53798;51.680;5.976;2022-07-30T02:14:48;101653.69;;;16.06;82.73
66887;BME280;53798;51.680;5.976;2022-07-30T02:17:27;101652.25;;;15.97;82.76
66887;BME280;53798;51.680;5.976;2022-07-30T02:20:08;101654.16;;;15.94;82.73
66887;BME280;53798;51.680;5.976;2022-07-30T02:22:43;101648.09;;;15.90;83.36
66887;BME280;53798;51.680;5.976;2022-07-30T02:25:17;101653.59;;;15.86;84.01
66887;BME280;53798;51.680;5.976;2022-07-30T02:27:51;101651.91;;;15.83;84.36
66887;BME280;53798;51.680;5.976;2022-07-30T02:30:24;101655.41;;;15.85;84.79
66887;BME280;53798;51.680;5.976;2022-07-30T02:33:04;101646.56;;;15.84;84.95
66887;BME280;53798;51.680;5.976;2022-07-30T02:35:34;101652.63;;;15.88;84.95
66887;BME280;53798;51.680;5.976;2022-07-30T02:38:04;101647.13;;;15.93;85.23
66887;BME280;53798;51.680;5.976;2022-07-30T02:40:34;101646.34;;;15.91;85.45
66887;BME280;53798;51.680;5.976;2022-07-30T02:43:07;101649.78;;;15.93;85.51
66887;BME280;53798;51.680;5.976;2022-07-30T02:45:36;101656.72;;;15.97;85.91
66887;BME280;53798;51.680;5.976;2022-07-30T02:48:06;101648.53;;;16.02;85.95
66887;BME280;53798;51.680;5.976;2022-07-30T02:50:38;101649.28;;;16.05;86.05
66887;BME280;53798;51.680;5.976;2022-07-30T02:53:08;101650.84;;;16.11;85.97
66887;BME280;53798;51.680;5.976;2022-07-30T02:55:40;101655.03;;;16.17;86.06
66887;BME280;53798;51.680;5.976;2022-07-30T02:58:15;101651.06;;;16.27;86.37
66887;BME280;53798;51.680;5.976;2022-07-30T03:00:47;101650.06;;;16.29;86.37
66887;BME280;53798;51.680;5.976;2022-07-30T03:03:15;101648.03;;;16.36;86.59
66887;BME280;53798;51.680;5.976;2022-07-30T03:05:45;101652.28;;;16.40;86.54
66887;BME280;53798;51.680;5.976;2022-07-30T03:08:16;101654.69;;;16.46;87.14
66887;BME280;53798;51.680;5.976;2022-07-30T03:10:47;101658.97;;;16.51;87.51
66887;BME280;53798;51.680;5.976;2022-07-30T03:13:16;101665.81;;;16.56;87.63
66887;BME280;53798;51.680;5.976;2022-07-30T03:15:47;101659.41;;;16.60;87.63
66887;BME280;53798;51.680;5.976;2022-07-30T03:18:19;101663.22;;;16.55;87.47
66887;BME280;53798;51.680;5.976;2022-07-30T03:20:50;101673.84;;;16.55;87.66
66887;BME280;53798;51.680;5.976;2022-07-30T03:23:21;101660.00;;;16.46;87.61
66887;BME280;53798;51.680;5.976;2022-07-30T03:25:56;101656.50;;;16.46;87.98
66887;BME280;53798;51.680;5.976;2022-07-30T03:28:32;101666.41;;;16.42;88.33
66887;BME280;53798;51.680;5.976;2022-07-30T03:31:04;101663.59;;;16.45;88.41
66887;BME280;53798;51.680;5.976;2022-07-30T03:33:33;101663.59;;;16.45;88.58
66887;BME280;53798;51.680;5.976;2022-07-30T03:36:06;101674.06;;;16.50;88.77
66887;BME280;53798;51.680;5.976;2022-07-30T03:38:36;101668.69;;;16.52;88.40
66887;BME280;53798;51.680;5.976;2022-07-30T03:41:05;101666.06;;;16.50;88.40
66887;BME280;53798;51.680;5.976;2022-07-30T03:43:34;101668.00;;;16.46;88.32
66887;BME280;53798;51.680;5.976;2022-07-30T03:46:05;101666.34;;;16.44;88.53
66887;BME280;53798;51.680;5.976;2022-07-30T03:48:40;101669.13;;;16.41;88.41
66887;BME280;53798;51.680;5.976;2022-07-30T03:51:08;101667.25;;;16.43;88.48
66887;BME280;53798;51.680;5.976;2022-07-30T03:53:40;101666.34;;;16.44;88.60
66887;BME280;53798;51.680;5.976;2022-07-30T03:56:26;101672.50;;;16.44;88.70
66887;BME280;53798;51.680;5.976;2022-07-30T03:59:04;101672.50;;;16.44;88.28
66887;BME280;53798;51.680;5.976;2022-07-30T04:01:36;101673.41;;;16.45;88.02
66887;BME280;53798;51.680;5.976;2022-07-30T04:04:23;101676.84;;;16.47;87.70
66887;BME280;53798;51.680;5.976;2022-07-30T04:06:51;101668.00;;;16.46;87.88
66887;BME280;53798;51.680;5.976;2022-07-30T04:09:18;101673.13;;;16.51;87.97
66887;BME280;53798;51.680;5.976;2022-07-30T04:11:47;101675.75;;;16.53;87.44
66887;BME280;53798;51.680;5.976;2022-07-30T04:14:16;101674.13;;;16.49;87.24
66887;BME280;53798;51.680;5.976;2022-07-30T04:16:54;101682.09;;;16.49;86.85
66887;BME280;53798;51.680;5.976;2022-07-30T04:19:37;101684.09;;;16.43;86.84
66887;BME280;53798;51.680;5.976;2022-07-30T04:22:11;101675.25;;;16.43;86.53
66887;BME280;53798;51.680;5.976;2022-07-30T04:24:42;101692.13;;;16.42;86.59
66887;BME280;53798;51.680;5.976;2022-07-30T04:27:11;101687.81;;;16.39;86.54
66887;BME280;53798;51.680;5.976;2022-07-30T04:29:39;101691.41;;;16.38;86.84
66887;BME280;53798;51.680;5.976;2022-07-30T04:32:10;101689.75;;;16.36;86.64
66887;BME280;53798;51.680;5.976;2022-07-30T04:34:56;101697.66;;;16.37;87.10
66887;BME280;53798;51.680;5.976;2022-07-30T04:37:42;101705.72;;;16.36;86.87
66887;BME280;53798;51.680;5.976;2022-07-30T04:40:09;101713.53;;;16.39;86.79
66887;BME280;53798;51.680;5.976;2022-07-30T04:42:36;101712.63;;;16.40;86.81
66887;BME280;53798;51.680;5.976;2022-07-30T04:45:08;101713.50;;;16.40;86.32
66887;BME280;53798;51.680;5.976;2022-07-30T04:47:48;101718.75;;;16.42;86.20
66887;BME280;53798;51.680;5.976;2022-07-30T04:50:32;101722.22;;;16.44;86.12
66887;BME280;53798;51.680;5.976;2022-07-30T04:53:07;101727.53;;;16.44;86.12
66887;BME280;53798;51.680;5.976;2022-07-30T04:55:43;101725.16;;;16.38;86.31
66887;BME280;53798;51.680;5.976;2022-07-30T04:58:14;101737.44;;;16.40;86.33
66887;BME280;53798;51.680;5.976;2022-07-30T05:00:45;101732.06;;;16.42;86.11
66887;BME280;53798;51.680;5.976;2022-07-30T05:03:19;101737.38;;;16.42;85.75
66887;BME280;53798;51.680;5.976;2022-07-30T05:05:50;101732.06;;;16.42;85.78
66887;BME280;53798;51.680;5.976;2022-07-30T05:08:25;101739.09;;;16.43;85.63
66887;BME280;53798;51.680;5.976;2022-07-30T05:10:53;101747.03;;;16.44;85.85
66887;BME280;53798;51.680;5.976;2022-07-30T05:13:23;101748.75;;;16.45;86.00
66887;BME280;53798;51.680;5.976;2022-07-30T05:16:01;101749.44;;;16.51;85.75
66887;BME280;53798;51.680;5.976;2022-07-30T05:18:28;101753.50;;;16.59;85.75
66887;BME280;53798;51.680;5.976;2022-07-30T05:20:56;101755.06;;;16.65;85.24
66887;BME280;53798;51.680;5.976;2022-07-30T05:23:50;101751.34;;;16.69;84.56
66887;BME280;53798;51.680;5.976;2022-07-30T05:26:29;101748.69;;;16.69;84.29
66887;BME280;53798;51.680;5.976;2022-07-30T05:28:59;101750.41;;;16.70;84.21
66887;BME280;53798;51.680;5.976;2022-07-30T05:31:42;101751.09;;;16.75;84.19
66887;BME280;53798;51.680;5.976;2022-07-30T05:34:11;101755.34;;;16.80;83.87
66887;BME280;53798;51.680;5.976;2022-07-30T05:36:43;101752.50;;;16.84;83.66
66887;BME280;53798;51.680;5.976;2022-07-30T05:39:13;101752.31;;;16.89;83.45
66887;BME280;53798;51.680;5.976;2022-07-30T05:42:03;101749.53;;;16.92;83.47
66887;BME280;53798;51.680;5.976;2022-07-30T05:44:34;101752.75;;;17.00;82.75
66887;BME280;53798;51.680;5.976;2022-07-30T05:47:01;101745.47;;;17.04;82.38
66887;BME280;53798;51.680;5.976;2022-07-30T05:49:29;101753.19;;;17.10;81.91
66887;BME280;53798;51.680;5.976;2022-07-30T05:52:05;101756.00;;;17.28;81.25
66887;BME280;53798;51.680;5.976;2022-07-30T05:54:36;101751.13;;;18.35;77.73
66887;BME280;53798;51.680;5.976;2022-07-30T05:57:18;101751.13;;;18.71;75.93
66887;BME280;53798;51.680;5.976;2022-07-30T05:59:45;101754.53;;;19.44;73.79
66887;BME280;53798;51.680;5.976;2022-07-30T06:02:23;101755.81;;;20.04;70.91
66887;BME280;53798;51.680;5.976;2022-07-30T06:05:14;101764.38;;;19.43;71.82
66887;BME280;53798;51.680;5.976;2022-07-30T06:07:42;101763.66;;;19.06;72.98
66887;BME280;53798;51.680;5.976;2022-07-30T06:10:09;101760.84;;;18.72;74.13
66887;BME280;53798;51.680;5.976;2022-07-30T06:12:37;101766.63;;;18.45;75.09
66887;BME280;53798;51.680;5.976;2022-07-30T06:15:05;101771.59;;;18.34;75.68
66887;BME280;53798;51.680;5.976;2022-07-30T06:17:44;101766.94;;;18.39;75.85
66887;BME280;53798;51.680;5.976;2022-07-30T06:20:46;101768.03;;;18.53;75.00
66887;BME280;53798;51.680;5.976;2022-07-30T06:23:34;101765.22;;;18.56;75.13
66887;BME280;53798;51.680;5.976;2022-07-30T06:26:21;101763.22;;;18.42;74.46
66887;BME280;53798;51.680;5.976;2022-07-30T06:28:49;101770.66;;;18.35;74.62
66887;BME280;53798;51.680;5.976;2022-07-30T06:31:22;101769.25;;;18.28;75.00
66887;BME280;53798;51.680;5.976;2022-07-30T06:33:50;101780.56;;;18.33;74.96
66887;BME280;53798;51.680;5.976;2022-07-30T06:36:18;101783.16;;;18.35;75.31
66887;BME280;53798;51.680;5.976;2022-07-30T06:38:53;101790.94;;;18.39;75.30
66887;BME280;53798;51.680;5.976;2022-07-30T06:41:32;101786.06;;;18.30;74.81
66887;BME280;53798;51.680;5.976;2022-07-30T06:43:59;101789.34;;;18.35;74.84
66887;BME280;53798;51.680;5.976;2022-07-30T06:46:47;101791.31;;;18.68;74.46
66887;BME280;53798;51.680;5.976;2022-07-30T06:49:18;101792.84;;;18.91;73.90
66887;BME280;53798;51.680;5.976;2022-07-30T06:51:46;101789.31;;;18.91;73.55
66887;BME280;53798;51.680;5.976;2022-07-30T06:54:13;101788.00;;;19.00;73.09
66887;BME280;53798;51.680;5.976;2022-07-30T06:57:02;101789.81;;;18.99;72.74
66887;BME280;53798;51.680;5.976;2022-07-30T06:59:31;101792.88;;;19.09;73.34
66887;BME280;53798;51.680;5.976;2022-07-30T07:02:27;101793.97;;;19.22;72.84
66887;BME280;53798;51.680;5.976;2022-07-30T07:05:07;101788.28;;;19.29;71.72
66887;BME280;53798;51.680;5.976;2022-07-30T07:07:35;101792.31;;;19.37;71.85
66887;BME280;53798;51.680;5.976;2022-07-30T07:10:12;101790.03;;;19.47;70.66
66887;BME280;53798;51.680;5.976;2022-07-30T07:12:56;101787.41;;;19.46;70.95
66887;BME280;53798;51.680;5.976;2022-07-30T07:15:23;101792.97;;;19.59;70.39
66887;BME280;53798;51.680;5.976;2022-07-30T07:18:06;101793.19;;;19.71;69.44
66887;BME280;53798;51.680;5.976;2022-07-30T07:20:36;101792.75;;;19.79;69.16
66887;BME280;53798;51.680;5.976;2022-07-30T07:23:06;101797.22;;;19.96;68.81
66887;BME280;53798;51.680;5.976;2022-07-30T07:25:38;101790.59;;;20.04;68.19
66887;BME280;53798;51.680;5.976;2022-07-30T07:28:06;101790.34;;;20.08;67.88
66887;BME280;53798;51.680;5.976;2022-07-30T07:30:43;101797.09;;;20.15;66.75
66887;BME280;53798;51.680;5.976;2022-07-30T07:33:12;101794.31;;;20.17;65.45
66887;BME280;53798;51.680;5.976;2022-07-30T07:35:42;101794.94;;;20.22;64.55
66887;BME280;53798;51.680;5.976;2022-07-30T07:38:24;101793.72;;;20.28;64.08
66887;BME280;53798;51.680;5.976;2022-07-30T07:40:53;101791.72;;;20.31;64.64
66887;BME280;53798;51.680;5.976;2022-07-30T07:43:20;101799.50;;;20.36;63.58
66887;BME280;53798;51.680;5.976;2022-07-30T07:45:48;101795.63;;;20.26;63.83
66887;BME280;53798;51.680;5.976;2022-07-30T07:48:17;101797.94;;;20.32;64.61
66887;BME280;53798;51.680;5.976;2022-07-30T07:50:44;101794.13;;;20.52;64.08
66887;BME280;53798;51.680;5.976;2022-07-30T07:53:31;101798.19;;;20.59;63.24
66887;BME280;53798;51.680;5.976;2022-07-30T07:55:59;101799.66;;;20.49;61.96
66887;BME280;53798;51.680;5.976;2022-07-30T07:58:26;101804.84;;;20.52;61.64
66887;BME280;53798;51.680;5.976;2022-07-30T08:00:58;101812.47;;;20.44;61.25
66887;BME280;53798;51.680;5.976;2022-07-30T08:03:46;101807.28;;;20.41;61.25
66887;BME280;53798;51.680;5.976;2022-07-30T08:06:40;101801.91;;;20.41;61.77
66887;BME280;53798;51.680;5.976;2022-07-30T08:09:29;101792.25;;;20.54;61.53
66887;BME280;53798;51.680;5.976;2022-07-30T08:12:30;101794.44;;;20.62;62.33
66887;BME280;53798;51.680;5.976;2022-07-30T08:15:17;101801.53;;;20.79;60.58
66887;BME280;53798;51.680;5.976;2022-07-30T08:18:07;101798.81;;;20.81;59.88
66887;BME280;53798;51.680;5.976;2022-07-30T08:20:59;101804.28;;;20.93;59.50
66887;BME280;53798;51.680;5.976;2022-07-30T08:23:30;101801.59;;;20.93;58.67
66887;BME280;53798;51.680;5.976;2022-07-30T08:25:58;101804.88;;;20.99;58.36
66887;BME280;53798;51.680;5.976;2022-07-30T08:28:25;101801.91;;;21.03;58.50
66887;BME280;53798;51.680;5.976;2022-07-30T08:31:03;101805.16;;;21.24;58.18
66887;BME280;53798;51.680;5.976;2022-07-30T08:33:30;101797.66;;;21.30;58.44
66887;BME280;53798;51.680;5.976;2022-07-30T08:35:58;101801.31;;;21.29;55.67
66887;BME280;53798;51.680;5.976;2022-07-30T08:38:36;101796.88;;;21.28;55.87
66887;BME280;53798;51.680;5.976;2022-07-30T08:41:06;101794.41;;;21.24;55.34
66887;BME280;53798;51.680;5.976;2022-07-30T08:43:35;101790.19;;;21.20;55.97
66887;BME280;53798;51.680;5.976;2022-07-30T08:46:08;101791.81;;;21.23;55.95
66887;BME280;53798;51.680;5.976;2022-07-30T08:48:47;101787.88;;;21.29;56.27
66887;BME280;53798;51.680;5.976;2022-07-30T08:51:18;101795.59;;;21.35;56.85
66887;BME280;53798;51.680;5.976;2022-07-30T08:54:05;101792.41;;;21.42;54.37
66887;BME280;53798;51.680;5.976;2022-07-30T08:56:34;101795.50;;;21.51;51.37
66887;BME280;53798;51.680;5.976;2022-07-30T08:59:03;101800.41;;;21.59;52.25
66887;BME280;53798;51.680;5.976;2022-07-30T09:01:31;101811.44;;;21.68;52.85
66887;BME280;53798;51.680;5.976;2022-07-30T09:03:59;101803.00;;;21.75;53.23
66887;BME280;53798;51.680;5.976;2022-07-30T09:06:27;101802.94;;;21.76;53.84
66887;BME280;53798;51.680;5.976;2022-07-30T09:08:55;101802.34;;;21.85;54.25
66887;BME280;53798;51.680;5.976;2022-07-30T09:11:22;101794.97;;;21.89;53.36
66887;BME280;53798;51.680;5.976;2022-07-30T09:13:50;101799.75;;;21.98;51.57
66887;BME280;53798;51.680;5.976;2022-07-30T09:16:22;101807.31;;;22.06;50.66
66887;BME280;53798;51.680;5.976;2022-07-30T09:21:22;101802.19;;;22.16;49.15
66887;BME280;53798;51.680;5.976;2022-07-30T09:24:11;101808.81;;;22.25;48.73
66887;BME280;53798;51.680;5.976;2022-07-30T09:27:06;101808.31;;;22.32;48.55
66887;BME280;53798;51.680;5.976;2022-07-30T09:29:56;101808.22;;;22.34;49.35
66887;BME280;53798;51.680;5.976;2022-07-30T09:32:54;101802.25;;;22.29;49.66
66887;BME280;53798;51.680;5.976;2022-07-30T09:35:42;101796.88;;;22.29;49.00
66887;BME280;53798;51.680;5.976;2022-07-30T09:38:11;101803.50;;;22.38;47.80
66887;BME280;53798;51.680;5.976;2022-07-30T09:41:07;101800.16;;;22.48;48.34
66887;BME280;53798;51.680;5.976;2022-07-30T09:44:07;101810.06;;;22.61;48.57
66887;BME280;53798;51.680;5.976;2022-07-30T09:46:41;101809.56;;;22.69;48.55
66887;BME280;53798;51.680;5.976;2022-07-30T09:49:29;101796.69;;;22.74;48.65
66887;BME280;53798;51.680;5.976;2022-07-30T09:51:56;101802.41;;;22.82;48.32
66887;BME280;53798;51.680;5.976;2022-07-30T09:54:48;101803.09;;;22.99;47.58
66887;BME280;53798;51.680;5.976;2022-07-30T09:57:22;101798.91;;;23.07;47.88
66887;BME280;53798;51.680;5.976;2022-07-30T10:00:19;101807.88;;;23.21;47.47
66887;BME280;53798;51.680;5.976;2022-07-30T10:03:21;101804.47;;;23.19;47.66
66887;BME280;53798;51.680;5.976;2022-07-30T10:06:31;101800.69;;;23.21;48.25
66887;BME280;53798;51.680;5.976;2022-07-30T10:09:03;101802.09;;;23.27;48.62
66887;BME280;53798;51.680;5.976;2022-07-30T10:11:43;101801.44;;;23.36;46.81
66887;BME280;53798;51.680;5.976;2022-07-30T10:14:10;101808.56;;;23.37;46.71
66887;BME280;53798;51.680;5.976;2022-07-30T10:16:39;101796.72;;;23.40;46.89
66887;BME280;53798;51.680;5.976;2022-07-30T10:19:11;101804.56;;;23.43;47.92
66887;BME280;53798;51.680;5.976;2022-07-30T10:22:08;101803.69;;;23.55;47.73
66887;BME280;53798;51.680;5.976;2022-07-30T10:24:55;101791.22;;;23.67;47.13
66887;BME280;53798;51.680;5.976;2022-07-30T10:27:44;101785.06;;;23.65;47.26
66887;BME280;53798;51.680;5.976;2022-07-30T10:30:25;101782.94;;;23.70;45.71
66887;BME280;53798;51.680;5.976;2022-07-30T10:32:56;101785.81;;;23.80;43.95
66887;BME280;53798;51.680;5.976;2022-07-30T10:35:25;101782.34;;;23.91;43.89
66887;BME280;53798;51.680;5.976;2022-07-30T10:38:09;101777.19;;;24.01;43.75
66887;BME280;53798;51.680;5.976;2022-07-30T10:40:49;101777.59;;;24.08;43.30
66887;BME280;53798;51.680;5.976;2022-07-30T10:43:36;101774.44;;;24.14;44.20
66887;BME280;53798;51.680;5.976;2022-07-30T10:49:14;101786.75;;;24.42;43.70
66887;BME280;53798;51.680;5.976;2022-07-30T10:51:47;101790.34;;;24.54;42.93
66887;BME280;53798;51.680;5.976;2022-07-30T10:57:12;101778.47;;;24.70;43.07
66887;BME280;53798;51.680;5.976;2022-07-30T11:02:28;101781.25;;;24.92;43.07
66887;BME280;53798;51.680;5.976;2022-07-30T11:11:05;101781.81;;;25.32;41.96
66887;BME280;53798;51.680;5.976;2022-07-30T11:14:11;101779.81;;;25.34;41.16
66887;BME280;53798;51.680;5.976;2022-07-30T11:17:04;101780.38;;;25.50;41.80
66887;BME280;53798;51.680;5.976;2022-07-30T11:19:31;101779.91;;;25.68;41.04
66887;BME280;53798;51.680;5.976;2022-07-30T11:22:25;101767.59;;;25.86;39.75
66887;BME280;53798;51.680;5.976;2022-07-30T11:24:55;101770.44;;;25.96;38.80
66887;BME280;53798;51.680;5.976;2022-07-30T11:46:19;101772.81;;;26.33;39.03
66887;BME280;53798;51.680;5.976;2022-07-30T11:51:25;101767.63;;;26.42;38.91
66887;BME280;53798;51.680;5.976;2022-07-30T11:54:05;101772.50;;;26.59;38.21
66887;BME280;53798;51.680;5.976;2022-07-30T11:56:36;101773.09;;;26.63;39.10
66887;BME280;53798;51.680;5.976;2022-07-30T11:59:05;101763.59;;;26.69;39.26
66887;BME280;53798;51.680;5.976;2022-07-30T12:01:48;101769.84;;;26.48;38.75
66887;BME280;53798;51.680;5.976;2022-07-30T12:04:16;101766.41;;;26.46;38.98
66887;BME280;53798;51.680;5.976;2022-07-30T12:06:46;101762.91;;;26.55;38.49
66887;BME280;53798;51.680;5.976;2022-07-30T12:09:25;101760.75;;;26.70;37.90
66887;BME280;53798;51.680;5.976;2022-07-30T12:11:57;101763.78;;;26.88;38.68
66887;BME280;53798;51.680;5.976;2022-07-30T12:14:36;101769.19;;;27.09;37.53
66887;BME280;53798;51.680;5.976;2022-07-30T12:17:04;101764.34;;;27.13;37.88
66887;BME280;53798;51.680;5.976;2022-07-30T12:19:46;101767.34;;;27.10;38.34
66887;BME280;53798;51.680;5.976;2022-07-30T12:22:14;101768.66;;;27.16;38.60
66887;BME280;53798;51.680;5.976;2022-07-30T12:24:42;101766.91;;;27.36;38.40
66887;BME280;53798;51.680;5.976;2022-07-30T12:27:09;101770.56;;;27.46;36.96
66887;BME280;53798;51.680;5.976;2022-07-30T12:29:36;101764.31;;;27.46;36.88
66887;BME280;53798;51.680;5.976;2022-07-30T12:32:04;101755.69;;;27.40;36.61
66887;BME280;53798;51.680;5.976;2022-07-30T12:34:31;101755.09;;;27.37;36.67
66887;BME280;53798;51.680;5.976;2022-07-30T12:37:08;101753.94;;;27.30;36.91
66887;BME280;53798;51.680;5.976;2022-07-30T12:39:36;101751.06;;;27.31;36.41
66887;BME280;53798;51.680;5.976;2022-07-30T12:42:03;101764.00;;;27.49;37.29
66887;BME280;53798;51.680;5.976;2022-07-30T12:44:41;101759.50;;;27.59;36.84
66887;BME280;53798;51.680;5.976;2022-07-30T12:47:25;101750.06;;;27.53;36.04
66887;BME280;53798;51.680;5.976;2022-07-30T12:49:57;101755.56;;;27.21;36.71
66887;BME280;53798;51.680;5.976;2022-07-30T12:52:32;101754.28;;;26.94;37.69
66887;BME280;53798;51.680;5.976;2022-07-30T12:55:06;101757.50;;;26.88;38.27
66887;BME280;53798;51.680;5.976;2022-07-30T12:57:55;101762.41;;;26.94;38.22
66887;BME280;53798;51.680;5.976;2022-07-30T13:00:48;101757.03;;;27.04;37.07
66887;BME280;53798;51.680;5.976;2022-07-30T13:03:22;101764.31;;;27.03;37.82
66887;BME280;53798;51.680;5.976;2022-07-30T13:05:52;101751.16;;;27.20;37.15
66887;BME280;53798;51.680;5.976;2022-07-30T13:08:50;101752.94;;;27.31;38.10
66887;BME280;53798;51.680;5.976;2022-07-30T13:11:24;101751.59;;;27.46;37.31
66887;BME280;53798;51.680;5.976;2022-07-30T13:13:53;101752.19;;;27.50;36.64
66887;BME280;53798;51.680;5.976;2022-07-30T13:16:23;101751.41;;;27.38;36.59
66887;BME280;53798;51.680;5.976;2022-07-30T13:18:50;101749.50;;;27.28;36.99
66887;BME280;53798;51.680;5.976;2022-07-30T13:21:17;101752.94;;;27.31;37.20
66887;BME280;53798;51.680;5.976;2022-07-30T13:23:47;101742.41;;;27.37;37.18
66887;BME280;53798;51.680;5.976;2022-07-30T13:26:15;101748.16;;;27.44;37.00
66887;BME280;53798;51.680;5.976;2022-07-30T13:28:42;101749.47;;;27.50;37.32
66887;BME280;53798;51.680;5.976;2022-07-30T13:31:12;101753.81;;;27.62;37.08
66887;BME280;53798;51.680;5.976;2022-07-30T13:33:40;101745.59;;;27.83;36.80
66887;BME280;53798;51.680;5.976;2022-07-30T13:36:08;101746.75;;;27.81;36.48
66887;BME280;53798;51.680;5.976;2022-07-30T13:38:36;101749.34;;;27.82;36.93
66887;BME280;53798;51.680;5.976;2022-07-30T13:41:03;101747.31;;;27.84;36.03
66887;BME280;53798;51.680;5.976;2022-07-30T13:43:31;101746.00;;;27.69;35.95
66887;BME280;53798;51.680;5.976;2022-07-30T13:46:01;101745.94;;;27.59;36.20
66887;BME280;53798;51.680;5.976;2022-07-30T13:48:32;101737.41;;;27.54;36.57
66887;BME280;53798;51.680;5.976;2022-07-30T13:51:02;101735.53;;;27.54;36.58
66887;BME280;53798;51.680;5.976;2022-07-30T13:53:31;101742.66;;;27.55;36.43
66887;BME280;53798;51.680;5.976;2022-07-30T13:55:59;101733.28;;;27.59;36.24
66887;BME280;53798;51.680;5.976;2022-07-30T13:58:33;101737.88;;;27.69;36.44
66887;BME280;53798;51.680;5.976;2022-07-30T14:01:02;101736.00;;;27.69;35.94
66887;BME280;53798;51.680;5.976;2022-07-30T14:03:29;101732.03;;;27.73;35.63
66887;BME280;53798;51.680;5.976;2022-07-30T14:05:56;101729.34;;;27.73;35.79